Time;durP1;ratioP1;P1;durP2;ratioP2;P2;SDS_P1;SDS_P2;PMS_P1;PMS_P2;Temp;Humidity;BMP_temperature;BMP_pressure;BME280_temperature;BME280_humidity;BME280_pressure;Samples;Min_cycle;Max_cycle;Signal;HPM_P1;HPM_P2
2022/02/20 00:01:21;;;;;;;5.03;1.10;;;;;;;;;;5002390;28;20233;-69
2022/02/20 00:03:46;;;;;;;4.97;0.90;;;;;;;;;;5012194;28;20241;-69
2022/02/20 00:06:11;;;;;;;4.60;1.40;;;;;;;;;;5013076;28;20297;-70
2022/02/20 00:08:36;;;;;;;1.70;0.73;;;;;;;;;;5020623;28;20174;-69
2022/02/20 00:11:02;;;;;;;6.10;1.13;;;;;;;;;;5014998;28;20198;-69
2022/02/20 00:13:27;;;;;;;5.77;1.00;;;;;;;;;;5013129;28;20183;-70
2022/02/20 00:15:52;;;;;;;1.87;0.63;;;;;;;;;;5019425;28;20291;-69
2022/02/20 00:18:18;;;;;;;3.73;0.80;;;;;;;;;;5007400;28;20180;-69
2022/02/20 00:20:44;;;;;;;4.27;1.20;;;;;;;;;;5010655;28;20187;-70
2022/02/20 00:23:09;;;;;;;3.93;0.80;;;;;;;;;;5016100;28;20214;-69
2022/02/20 00:25:36;;;;;;;3.00;1.00;;;;;;;;;;5013811;28;20199;-69
2022/02/20 00:28:02;;;;;;;5.17;1.60;;;;;;;;;;5018219;28;20262;-69
2022/02/20 00:30:27;;;;;;;3.47;1.67;;;;;;;;;;5025940;28;20285;-69
2022/02/20 00:32:54;;;;;;;6.77;1.50;;;;;;;;;;5026148;28;20181;-68
2022/02/20 00:35:19;;;;;;;4.70;1.83;;;;;;;;;;5017736;28;20605;-69
2022/02/20 00:37:45;;;;;;;2.70;1.43;;;;;;;;;;5013368;28;20187;-69
2022/02/20 00:40:10;;;;;;;6.67;1.83;;;;;;;;;;5017236;28;20189;-69
2022/02/20 00:42:35;;;;;;;7.03;2.17;;;;;;;;;;5015149;28;20179;-69
2022/02/20 00:45:01;;;;;;;10.13;1.50;;;;;;;;;;5012505;28;20175;-69
2022/02/20 00:47:26;;;;;;;4.33;1.00;;;;;;;;;;5013227;28;20217;-69
2022/02/20 00:49:51;;;;;;;4.50;1.17;;;;;;;;;;5007839;28;20661;-69
2022/02/20 00:52:16;;;;;;;5.77;1.37;;;;;;;;;;5007759;28;20712;-69
2022/02/20 00:54:41;;;;;;;3.37;0.97;;;;;;;;;;5012857;28;20230;-68
2022/02/20 00:57:07;;;;;;;6.63;1.10;;;;;;;;;;5012685;28;20599;-69
2022/02/20 00:59:32;;;;;;;8.27;1.53;;;;;;;;;;5007370;28;20636;-68
2022/02/20 01:01:57;;;;;;;4.13;0.63;;;;;;;;;;5017439;28;20191;-69
2022/02/20 01:04:22;;;;;;;2.83;0.80;;;;;;;;;;5009913;28;20186;-69
2022/02/20 01:06:47;;;;;;;2.33;0.90;;;;;;;;;;5005477;28;20589;-69
2022/02/20 01:09:12;;;;;;;6.00;0.90;;;;;;;;;;5007879;28;20269;-69
2022/02/20 01:11:38;;;;;;;4.43;1.07;;;;;;;;;;5013082;28;20745;-69
2022/02/20 01:14:03;;;;;;;3.30;0.83;;;;;;;;;;5012218;28;21716;-69
2022/02/20 01:16:28;;;;;;;5.93;1.87;;;;;;;;;;5012423;28;20203;-69
2022/02/20 01:18:53;;;;;;;2.67;0.77;;;;;;;;;;5013712;28;20672;-68
2022/02/20 01:21:18;;;;;;;4.00;0.60;;;;;;;;;;5012740;28;20197;-69
2022/02/20 01:23:44;;;;;;;4.33;0.90;;;;;;;;;;5013857;28;20795;-69
2022/02/20 01:26:09;;;;;;;3.43;0.87;;;;;;;;;;5016475;28;20310;-69
2022/02/20 01:28:34;;;;;;;3.67;0.70;;;;;;;;;;5012547;28;20179;-69
2022/02/20 01:30:59;;;;;;;5.27;2.43;;;;;;;;;;5011284;28;20201;-69
2022/02/20 01:33:24;;;;;;;2.87;0.77;;;;;;;;;;5012331;28;20191;-68
2022/02/20 01:35:50;;;;;;;1.67;0.67;;;;;;;;;;5011994;28;20738;-68
2022/02/20 01:38:15;;;;;;;4.60;0.70;;;;;;;;;;5013581;28;20209;-68
2022/02/20 01:40:44;;;;;;;2.33;0.60;;;;;;;;;;5013193;28;20179;-69
2022/02/20 01:43:11;;;;;;;7.60;0.90;;;;;;;;;;5020494;28;20175;-68
2022/02/20 01:45:36;;;;;;;3.23;0.67;;;;;;;;;;5018138;28;20281;-68
2022/02/20 01:48:01;;;;;;;5.10;0.63;;;;;;;;;;5010898;28;20274;-69
2022/02/20 01:50:26;;;;;;;2.47;0.80;;;;;;;;;;5011707;28;20221;-68
2022/02/20 01:52:52;;;;;;;1.30;0.70;;;;;;;;;;5011273;28;20637;-68
2022/02/20 01:55:17;;;;;;;2.20;0.63;;;;;;;;;;5010627;28;20186;-68
2022/02/20 01:57:42;;;;;;;2.73;0.60;;;;;;;;;;5011136;28;20183;-68
2022/02/20 02:00:09;;;;;;;3.03;0.50;;;;;;;;;;5013336;28;20179;-69
2022/02/20 02:02:35;;;;;;;4.30;0.90;;;;;;;;;;5016039;28;20178;-68
2022/02/20 02:05:00;;;;;;;3.57;1.33;;;;;;;;;;5012989;28;20197;-69
2022/02/20 02:07:28;;;;;;;3.03;0.60;;;;;;;;;;5013448;28;20294;-68
2022/02/20 02:09:53;;;;;;;2.87;0.50;;;;;;;;;;5008194;28;20181;-68
2022/02/20 02:12:19;;;;;;;3.30;1.63;;;;;;;;;;5013000;28;20203;-68
2022/02/20 02:14:53;;;;;;;2.60;0.60;;;;;;;;;;5008221;28;20207;-69
2022/02/20 02:17:18;;;;;;;2.43;0.43;;;;;;;;;;5013407;28;20234;-73
2022/02/20 02:19:43;;;;;;;2.77;0.50;;;;;;;;;;5011613;28;20206;-68
2022/02/20 02:22:08;;;;;;;6.63;0.80;;;;;;;;;;5019546;28;20194;-68
2022/02/20 02:24:33;;;;;;;2.97;0.90;;;;;;;;;;5020438;28;20229;-69
2022/02/20 02:26:59;;;;;;;2.53;0.60;;;;;;;;;;5037687;23;20262;-69
2022/02/20 02:29:26;;;;;;;2.13;0.70;;;;;;;;;;5064601;28;20599;-68
2022/02/20 02:31:51;;;;;;;3.53;0.70;;;;;;;;;;5070422;28;20295;-69
2022/02/20 02:34:16;;;;;;;5.57;0.73;;;;;;;;;;5071085;28;20204;-70
2022/02/20 02:36:45;;;;;;;2.40;0.90;;;;;;;;;;5066049;28;20272;-69
2022/02/20 02:39:11;;;;;;;1.63;0.70;;;;;;;;;;5065379;28;20275;-68
2022/02/20 02:41:37;;;;;;;1.37;0.70;;;;;;;;;;5069513;28;20245;-69
2022/02/20 02:44:03;;;;;;;2.00;0.60;;;;;;;;;;5070372;28;20177;-69
2022/02/20 02:46:28;;;;;;;2.03;0.50;;;;;;;;;;5070711;28;20200;-69
2022/02/20 02:48:54;;;;;;;2.23;1.03;;;;;;;;;;5066416;28;20633;-68
2022/02/20 02:51:19;;;;;;;1.40;0.67;;;;;;;;;;5069147;28;20244;-69
2022/02/20 02:53:44;;;;;;;2.33;1.03;;;;;;;;;;5070040;28;20267;-68
2022/02/20 02:56:09;;;;;;;3.60;1.13;;;;;;;;;;5069530;28;20243;-69
2022/02/20 02:58:35;;;;;;;5.23;1.53;;;;;;;;;;5071110;28;20322;-69
2022/02/20 03:01:00;;;;;;;6.17;0.97;;;;;;;;;;5069633;28;20180;-69
2022/02/20 03:03:25;;;;;;;4.30;0.93;;;;;;;;;;5069000;28;20656;-68
2022/02/20 03:05:51;;;;;;;4.20;1.00;;;;;;;;;;5068567;28;20184;-69
2022/02/20 03:08:16;;;;;;;3.63;0.70;;;;;;;;;;5050297;28;20180;-69
2022/02/20 03:10:41;;;;;;;4.33;0.80;;;;;;;;;;5070422;28;20208;-69
2022/02/20 03:13:07;;;;;;;6.63;1.50;;;;;;;;;;5068672;28;20188;-69
2022/02/20 03:15:32;;;;;;;6.97;1.17;;;;;;;;;;5068199;28;20173;-68
2022/02/20 03:17:57;;;;;;;5.20;1.40;;;;;;;;;;5063483;28;20211;-69
2022/02/20 03:20:22;;;;;;;6.67;1.13;;;;;;;;;;5068013;28;20205;-68
2022/02/20 03:22:47;;;;;;;5.47;1.43;;;;;;;;;;5068190;28;20188;-69
2022/02/20 03:25:13;;;;;;;5.03;1.13;;;;;;;;;;5068430;28;20231;-69
2022/02/20 03:27:38;;;;;;;3.70;1.03;;;;;;;;;;5059540;28;20242;-69
2022/02/20 03:30:04;;;;;;;6.50;1.60;;;;;;;;;;5066953;28;20187;-69
2022/02/20 03:32:29;;;;;;;3.80;1.03;;;;;;;;;;5066463;28;20234;-68
2022/02/20 03:34:54;;;;;;;2.60;1.00;;;;;;;;;;5066465;28;20313;-69
2022/02/20 03:37:19;;;;;;;7.80;1.87;;;;;;;;;;5062634;28;20545;-68
2022/02/20 03:39:44;;;;;;;4.67;2.17;;;;;;;;;;5067970;28;20221;-69
2022/02/20 03:42:10;;;;;;;5.33;1.47;;;;;;;;;;5062825;28;20199;-69
2022/02/20 03:44:35;;;;;;;6.70;1.60;;;;;;;;;;5066914;28;20270;-69
2022/02/20 03:47:00;;;;;;;4.70;1.30;;;;;;;;;;5067704;28;20331;-69
2022/02/20 03:49:25;;;;;;;9.67;2.00;;;;;;;;;;5068636;28;20610;-69
2022/02/20 03:51:51;;;;;;;3.47;1.80;;;;;;;;;;5068653;28;20216;-69
2022/02/20 03:54:16;;;;;;;9.43;1.90;;;;;;;;;;5067756;28;20481;-69
2022/02/20 03:56:41;;;;;;;6.63;2.17;;;;;;;;;;5068416;28;20726;-69
2022/02/20 03:59:06;;;;;;;4.83;1.67;;;;;;;;;;5068441;28;20185;-68
2022/02/20 04:01:31;;;;;;;4.87;1.77;;;;;;;;;;5068763;28;20177;-69
2022/02/20 04:03:56;;;;;;;3.47;2.20;;;;;;;;;;5067774;28;20688;-68
2022/02/20 04:06:22;;;;;;;8.20;2.93;;;;;;;;;;5067781;28;20680;-68
2022/02/20 04:08:47;;;;;;;3.00;2.47;;;;;;;;;;5070427;28;20169;-68
2022/02/20 04:11:12;;;;;;;10.73;3.00;;;;;;;;;;5069631;28;20832;-69
2022/02/20 04:13:37;;;;;;;6.10;3.33;;;;;;;;;;5069171;28;20177;-68
2022/02/20 04:16:03;;;;;;;7.37;3.53;;;;;;;;;;5068472;28;20243;-69
2022/02/20 04:18:28;;;;;;;6.93;3.30;;;;;;;;;;5067080;28;20551;-69
2022/02/20 04:20:53;;;;;;;7.57;3.50;;;;;;;;;;5068798;28;20184;-69
2022/02/20 04:23:18;;;;;;;11.93;4.23;;;;;;;;;;5068040;28;20199;-69
2022/02/20 04:25:44;;;;;;;11.87;4.60;;;;;;;;;;5067435;28;20189;-69
2022/02/20 04:28:09;;;;;;;9.27;4.87;;;;;;;;;;5064348;28;20593;-68
2022/02/20 04:30:34;;;;;;;11.13;5.23;;;;;;;;;;5069953;28;20658;-69
2022/02/20 04:32:59;;;;;;;10.57;4.77;;;;;;;;;;5071998;28;20231;-68
2022/02/20 04:35:24;;;;;;;8.50;5.23;;;;;;;;;;5068572;28;20189;-69
2022/02/20 04:37:53;;;;;;;10.97;4.87;;;;;;;;;;5070730;28;20227;-68
2022/02/20 04:40:18;;;;;;;9.87;6.10;;;;;;;;;;5066416;28;20184;-69
2022/02/20 04:42:44;;;;;;;11.63;6.17;;;;;;;;;;5072271;28;20191;-69
2022/02/20 04:45:09;;;;;;;10.30;5.00;;;;;;;;;;5069952;28;20192;-69
2022/02/20 04:47:34;;;;;;;9.60;6.20;;;;;;;;;;5069590;28;20649;-69
2022/02/20 04:49:59;;;;;;;13.90;6.00;;;;;;;;;;5072346;28;20223;-69
2022/02/20 04:52:24;;;;;;;11.53;6.80;;;;;;;;;;5051541;28;20201;-69
2022/02/20 04:54:50;;;;;;;9.37;5.90;;;;;;;;;;5068638;28;20177;-69
2022/02/20 04:57:15;;;;;;;12.87;6.77;;;;;;;;;;5066322;28;20205;-68
2022/02/20 04:59:40;;;;;;;11.00;6.53;;;;;;;;;;5076319;28;20173;-69
2022/02/20 05:02:05;;;;;;;15.53;7.17;;;;;;;;;;5054253;28;20194;-68
2022/02/20 05:04:31;;;;;;;13.33;6.37;;;;;;;;;;5070199;28;20618;-69
2022/02/20 05:06:57;;;;;;;13.87;7.83;;;;;;;;;;5051814;28;20232;-69
2022/02/20 05:09:22;;;;;;;14.23;6.90;;;;;;;;;;5069018;28;20312;-69
2022/02/20 05:11:47;;;;;;;12.93;7.57;;;;;;;;;;5067398;28;20201;-69
2022/02/20 05:14:12;;;;;;;14.33;8.87;;;;;;;;;;5069709;28;20262;-69
2022/02/20 05:16:38;;;;;;;16.50;7.90;;;;;;;;;;5071979;28;20223;-69
2022/02/20 05:19:04;;;;;;;12.83;7.97;;;;;;;;;;5071903;28;20169;-67
2022/02/20 05:21:29;;;;;;;17.30;8.90;;;;;;;;;;5070367;28;20173;-69
2022/02/20 05:23:54;;;;;;;12.87;8.13;;;;;;;;;;5077977;28;20180;-68
2022/02/20 05:26:19;;;;;;;18.17;9.30;;;;;;;;;;5089352;28;20216;-69
2022/02/20 05:28:45;;;;;;;18.07;9.97;;;;;;;;;;5063302;28;20185;-68
2022/02/20 05:31:10;;;;;;;14.00;8.07;;;;;;;;;;5052586;28;20234;-69
2022/02/20 05:33:35;;;;;;;14.80;8.93;;;;;;;;;;5068132;28;20230;-68
2022/02/20 05:36:00;;;;;;;17.53;9.20;;;;;;;;;;5070206;28;20165;-68
2022/02/20 05:38:26;;;;;;;18.07;9.03;;;;;;;;;;5069882;28;20625;-67
2022/02/20 05:40:51;;;;;;;20.60;10.27;;;;;;;;;;5068755;28;20173;-68
2022/02/20 05:43:16;;;;;;;17.87;9.57;;;;;;;;;;5070655;28;20205;-68
2022/02/20 05:45:42;;;;;;;16.37;9.77;;;;;;;;;;5070976;28;20222;-67
2022/02/20 05:48:07;;;;;;;21.37;9.93;;;;;;;;;;5070597;28;20216;-68
2022/02/20 05:50:32;;;;;;;17.97;8.93;;;;;;;;;;5069614;28;20197;-68
2022/02/20 05:52:57;;;;;;;16.30;8.47;;;;;;;;;;5070603;28;20216;-68
2022/02/20 05:55:23;;;;;;;19.30;8.97;;;;;;;;;;5070396;28;20177;-68
2022/02/20 05:57:49;;;;;;;15.77;10.07;;;;;;;;;;5070072;28;20201;-68
2022/02/20 06:00:16;;;;;;;27.57;10.47;;;;;;;;;;5066249;28;20185;-67
2022/02/20 06:02:41;;;;;;;16.13;7.93;;;;;;;;;;5062482;28;20181;-68
2022/02/20 06:05:07;;;;;;;15.63;8.00;;;;;;;;;;5070409;28;20634;-67
2022/02/20 06:07:32;;;;;;;16.90;8.27;;;;;;;;;;5056286;28;20207;-67
2022/02/20 06:09:58;;;;;;;26.67;8.13;;;;;;;;;;5069900;28;20192;-67
2022/02/20 06:12:23;;;;;;;16.57;8.10;;;;;;;;;;5070266;28;20217;-67
2022/02/20 06:14:48;;;;;;;23.40;9.47;;;;;;;;;;5069484;28;20177;-68
2022/02/20 06:17:13;;;;;;;18.47;8.30;;;;;;;;;;5070167;28;20284;-68
2022/02/20 06:19:38;;;;;;;22.47;8.87;;;;;;;;;;5069712;28;20242;-68
2022/02/20 06:22:03;;;;;;;19.87;8.03;;;;;;;;;;5069763;28;20169;-68
2022/02/20 06:24:29;;;;;;;24.80;9.40;;;;;;;;;;5062931;28;20196;-67
2022/02/20 06:26:54;;;;;;;21.33;8.23;;;;;;;;;;5063111;28;20216;-67
2022/02/20 06:29:19;;;;;;;28.33;11.00;;;;;;;;;;5062284;28;20204;-67
2022/02/20 06:31:44;;;;;;;18.60;8.80;;;;;;;;;;5068512;28;20205;-68
2022/02/20 06:34:10;;;;;;;21.40;9.77;;;;;;;;;;5064363;28;20224;-70
2022/02/20 06:36:35;;;;;;;16.77;8.77;;;;;;;;;;5069739;28;20656;-71
2022/02/20 06:39:01;;;;;;;20.30;10.00;;;;;;;;;;5047933;28;20251;-68
2022/02/20 06:41:26;;;;;;;21.03;10.50;;;;;;;;;;5070097;28;20275;-68
2022/02/20 06:43:51;;;;;;;23.23;11.10;;;;;;;;;;5069734;28;20185;-69
2022/02/20 06:46:16;;;;;;;21.80;9.67;;;;;;;;;;5068337;28;20292;-68
2022/02/20 06:48:41;;;;;;;16.33;9.50;;;;;;;;;;5051170;28;20543;-69
2022/02/20 06:51:06;;;;;;;26.40;9.13;;;;;;;;;;5067640;28;20266;-68
2022/02/20 06:53:31;;;;;;;19.60;9.70;;;;;;;;;;5069424;28;20184;-69
2022/02/20 06:55:57;;;;;;;21.60;10.80;;;;;;;;;;5065855;28;20213;-68
2022/02/20 06:58:22;;;;;;;17.87;9.27;;;;;;;;;;5068939;28;20200;-68
2022/02/20 07:00:48;;;;;;;22.43;9.30;;;;;;;;;;5069404;28;20173;-68
2022/02/20 07:03:13;;;;;;;18.93;8.90;;;;;;;;;;5068842;28;20250;-71
2022/02/20 07:05:39;;;;;;;12.90;7.20;;;;;;;;;;5069817;28;20223;-71
2022/02/20 07:08:05;;;;;;;14.97;7.30;;;;;;;;;;5061678;28;20633;-68
2022/02/20 07:10:30;;;;;;;21.40;7.00;;;;;;;;;;5067121;28;20212;-71
2022/02/20 07:12:55;;;;;;;14.47;5.73;;;;;;;;;;5066273;28;20646;-68
2022/02/20 07:15:20;;;;;;;19.07;6.07;;;;;;;;;;5067923;28;20181;-68
2022/02/20 07:17:45;;;;;;;14.57;6.20;;;;;;;;;;5067830;28;20220;-68
2022/02/20 07:20:11;;;;;;;19.27;5.77;;;;;;;;;;5067754;28;20177;-68
2022/02/20 07:22:36;;;;;;;18.93;6.17;;;;;;;;;;5060969;28;20192;-68
2022/02/20 07:25:02;;;;;;;15.73;6.23;;;;;;;;;;5066461;28;20615;-69
2022/02/20 07:27:35;;;;;;;14.30;4.67;;;;;;;;;;5069237;28;20200;-69
2022/02/20 07:30:00;;;;;;;16.63;6.23;;;;;;;;;;5068575;28;20185;-70
2022/02/20 07:32:25;;;;;;;19.10;5.10;;;;;;;;;;5067658;28;20212;-68
2022/02/20 07:34:50;;;;;;;16.87;5.47;;;;;;;;;;5073273;28;20179;-68
2022/02/20 07:37:15;;;;;;;14.07;4.87;;;;;;;;;;5068039;28;20192;-68
2022/02/20 07:39:41;;;;;;;16.13;6.10;;;;;;;;;;5068981;28;20253;-69
2022/02/20 07:42:06;;;;;;;16.43;4.93;;;;;;;;;;5066988;28;20181;-70
2022/02/20 07:44:34;;;;;;;20.10;5.03;;;;;;;;;;5066778;28;20245;-69
2022/02/20 07:46:59;;;;;;;16.80;5.30;;;;;;;;;;5068397;28;20197;-68
2022/02/20 07:49:24;;;;;;;19.57;5.70;;;;;;;;;;5067319;28;20185;-69
2022/02/20 07:51:49;;;;;;;23.80;4.90;;;;;;;;;;5067155;28;20331;-68
2022/02/20 07:54:15;;;;;;;25.70;7.63;;;;;;;;;;5068590;28;20199;-71
2022/02/20 07:56:40;;;;;;;20.63;5.37;;;;;;;;;;5068003;28;20284;-71
2022/02/20 07:59:05;;;;;;;22.90;5.13;;;;;;;;;;5068996;28;20307;-67
2022/02/20 08:01:31;;;;;;;25.33;6.30;;;;;;;;;;5070132;28;20189;-68
2022/02/20 08:03:57;;;;;;;31.17;5.40;;;;;;;;;;5072119;28;20689;-69
2022/02/20 08:06:22;;;;;;;24.23;5.47;;;;;;;;;;5071365;28;20223;-68
2022/02/20 08:08:47;;;;;;;32.17;5.73;;;;;;;;;;5067910;28;20285;-68
2022/02/20 08:11:12;;;;;;;22.00;5.57;;;;;;;;;;5063697;28;20197;-68
2022/02/20 08:13:37;;;;;;;29.60;7.80;;;;;;;;;;5053065;28;20181;-71
2022/02/20 08:16:03;;;;;;;27.97;7.83;;;;;;;;;;5072171;28;20185;-68
2022/02/20 08:18:28;;;;;;;36.87;8.57;;;;;;;;;;5072229;28;20185;-68
2022/02/20 08:20:53;;;;;;;38.20;7.33;;;;;;;;;;5073313;28;20688;-68
2022/02/20 08:23:18;;;;;;;26.50;6.50;;;;;;;;;;5067447;28;20673;-68
2022/02/20 08:25:44;;;;;;;36.67;7.90;;;;;;;;;;5071402;28;20197;-71
2022/02/20 08:28:09;;;;;;;29.23;6.27;;;;;;;;;;5079012;22;20290;-69
2022/02/20 08:30:35;;;;;;;46.23;7.93;;;;;;;;;;5063032;28;20212;-69
2022/02/20 08:33:02;;;;;;;42.27;7.13;;;;;;;;;;5071864;28;20185;-70
2022/02/20 08:35:27;;;;;;;32.47;8.13;;;;;;;;;;5072188;28;20180;-70
2022/02/20 08:37:52;;;;;;;34.83;7.67;;;;;;;;;;5067937;28;20667;-70
2022/02/20 08:40:18;;;;;;;35.17;8.40;;;;;;;;;;5070771;28;20177;-70
2022/02/20 08:42:44;;;;;;;35.97;7.50;;;;;;;;;;5069420;28;20185;-71
2022/02/20 08:45:10;;;;;;;33.10;6.90;;;;;;;;;;5067691;28;20196;-70
2022/02/20 08:47:35;;;;;;;34.47;7.70;;;;;;;;;;5070291;28;20197;-70
2022/02/20 08:50:01;;;;;;;33.57;6.40;;;;;;;;;;5068597;28;20639;-69
2022/02/20 08:52:26;;;;;;;35.00;7.00;;;;;;;;;;5054586;28;20654;-70
2022/02/20 08:54:51;;;;;;;27.57;6.10;;;;;;;;;;5053520;28;20181;-70
2022/02/20 08:57:17;;;;;;;34.23;6.53;;;;;;;;;;5072304;28;20576;-69
2022/02/20 08:59:42;;;;;;;26.17;6.20;;;;;;;;;;5072843;28;20188;-68
2022/02/20 09:02:09;;;;;;;26.30;7.23;;;;;;;;;;5061849;28;20639;-69
2022/02/20 09:04:35;;;;;;;34.07;6.23;;;;;;;;;;5071710;28;20196;-69
2022/02/20 09:07:01;;;;;;;28.47;7.00;;;;;;;;;;5064258;28;20266;-69
2022/02/20 09:09:26;;;;;;;26.53;5.70;;;;;;;;;;5064221;28;20197;-69
2022/02/20 09:11:51;;;;;;;25.47;5.83;;;;;;;;;;5070361;28;20224;-70
2022/02/20 09:14:16;;;;;;;35.23;7.97;;;;;;;;;;5064286;28;20192;-69
2022/02/20 09:16:42;;;;;;;28.10;6.03;;;;;;;;;;5069063;28;20321;-69
2022/02/20 09:19:07;;;;;;;30.77;6.40;;;;;;;;;;5067150;28;20181;-69
2022/02/20 09:21:33;;;;;;;35.17;6.93;;;;;;;;;;5070902;28;20670;-69
2022/02/20 09:23:58;;;;;;;35.43;8.07;;;;;;;;;;5053689;28;20260;-69
2022/02/20 09:26:23;;;;;;;32.27;5.73;;;;;;;;;;5069135;28;20728;-69
2022/02/20 09:28:48;;;;;;;31.27;6.50;;;;;;;;;;5069530;28;20208;-69
2022/02/20 09:31:14;;;;;;;32.60;6.87;;;;;;;;;;5070075;28;20201;-69
2022/02/20 09:33:39;;;;;;;29.60;6.23;;;;;;;;;;5069421;28;20209;-70
2022/02/20 09:36:06;;;;;;;33.47;7.27;;;;;;;;;;5071984;28;20174;-69
2022/02/20 09:38:31;;;;;;;32.50;7.47;;;;;;;;;;5061876;28;20192;-69
2022/02/20 09:40:56;;;;;;;32.77;7.07;;;;;;;;;;5062719;28;20681;-69
2022/02/20 09:43:22;;;;;;;34.80;6.67;;;;;;;;;;5063615;28;20575;-69
2022/02/20 09:45:48;;;;;;;30.30;6.67;;;;;;;;;;5070789;28;20658;-69
2022/02/20 09:48:13;;;;;;;34.73;8.80;;;;;;;;;;5066406;28;20637;-69
2022/02/20 09:50:41;;;;;;;31.83;7.30;;;;;;;;;;5069464;28;20280;-69
2022/02/20 09:53:06;;;;;;;35.33;9.80;;;;;;;;;;5069910;28;20180;-68
2022/02/20 09:55:31;;;;;;;36.70;8.93;;;;;;;;;;5063000;28;20184;-69
2022/02/20 09:57:56;;;;;;;30.93;8.00;;;;;;;;;;5070887;28;20192;-69
2022/02/20 10:00:22;;;;;;;32.70;7.17;;;;;;;;;;5069012;28;20177;-69
2022/02/20 10:02:47;;;;;;;28.80;7.87;;;;;;;;;;5074146;28;20169;-69
2022/02/20 10:05:16;;;;;;;38.73;8.20;;;;;;;;;;5070903;28;20177;-69
2022/02/20 10:07:41;;;;;;;38.20;9.70;;;;;;;;;;5048487;28;20197;-68
2022/02/20 10:10:12;;;;;;;34.57;6.30;;;;;;;;;;5072345;28;20184;-68
2022/02/20 10:12:38;;;;;;;39.70;7.80;;;;;;;;;;5070440;28;20215;-69
2022/02/20 10:15:03;;;;;;;33.83;8.73;;;;;;;;;;5070980;28;20181;-69
2022/02/20 10:17:29;;;;;;;35.37;7.07;;;;;;;;;;5063530;28;20700;-68
2022/02/20 10:19:58;;;;;;;45.20;9.40;;;;;;;;;;5062902;28;20180;-69
2022/02/20 10:22:34;;;;;;;34.23;9.30;;;;;;;;;;5070254;28;20193;-69
2022/02/20 10:25:01;;;;;;;40.40;7.93;;;;;;;;;;5065585;28;20180;-68
2022/02/20 10:27:26;;;;;;;32.17;7.57;;;;;;;;;;5071717;28;20219;-69
2022/02/20 10:30:08;;;;;;;37.23;10.33;;;;;;;;;;5070057;28;20173;-69
2022/02/20 10:32:34;;;;;;;31.60;7.60;;;;;;;;;;5060200;28;20201;-69
2022/02/20 10:35:13;;;;;;;30.83;8.20;;;;;;;;;;5061093;28;20234;-69
2022/02/20 10:37:38;;;;;;;31.93;6.67;;;;;;;;;;5058792;28;20203;-68
2022/02/20 10:40:22;;;;;;;33.00;7.93;;;;;;;;;;5074513;28;20164;-69
2022/02/20 10:42:48;;;;;;;30.67;7.87;;;;;;;;;;5065148;28;20165;-69
2022/02/20 10:45:21;;;;;;;42.77;8.50;;;;;;;;;;5054198;28;20672;-70
2022/02/20 10:47:47;;;;;;;26.53;7.23;;;;;;;;;;5068445;28;20192;-69
2022/02/20 10:50:19;;;;;;;26.93;6.03;;;;;;;;;;5072890;28;20242;-69
2022/02/20 10:52:46;;;;;;;40.03;7.90;;;;;;;;;;5071610;28;20243;-69
2022/02/20 10:55:12;;;;;;;36.90;8.80;;;;;;;;;;5047046;28;20181;-69
2022/02/20 10:57:40;;;;;;;35.97;6.80;;;;;;;;;;5076003;28;20220;-69
2022/02/20 11:00:12;;;;;;;32.27;6.87;;;;;;;;;;5074226;28;20165;-69
2022/02/20 11:02:37;;;;;;;31.37;6.77;;;;;;;;;;5075760;28;20177;-69
2022/02/20 11:05:03;;;;;;;42.93;8.50;;;;;;;;;;5071027;28;20196;-70
2022/02/20 11:07:28;;;;;;;30.10;8.73;;;;;;;;;;5071010;28;20678;-69
2022/02/20 11:09:53;;;;;;;45.90;9.30;;;;;;;;;;5076150;28;20169;-70
2022/02/20 11:12:21;;;;;;;42.37;8.90;;;;;;;;;;5058574;28;20205;-69
2022/02/20 11:14:46;;;;;;;28.60;6.53;;;;;;;;;;5063990;28;20626;-69
2022/02/20 11:17:12;;;;;;;35.40;8.83;;;;;;;;;;5068428;28;20195;-69
2022/02/20 11:19:38;;;;;;;28.53;6.43;;;;;;;;;;5064146;28;20169;-70
2022/02/20 11:22:04;;;;;;;28.63;9.00;;;;;;;;;;5063721;28;20186;-69
2022/02/20 11:24:30;;;;;;;48.97;9.30;;;;;;;;;;5049626;28;20173;-69
2022/02/20 11:26:59;;;;;;;34.77;6.50;;;;;;;;;;5067400;28;20204;-68
2022/02/20 11:29:24;;;;;;;24.80;7.20;;;;;;;;;;5067593;28;20612;-70
2022/02/20 11:31:49;;;;;;;35.87;7.60;;;;;;;;;;5067806;28;20247;-69
2022/02/20 11:34:15;;;;;;;30.30;7.83;;;;;;;;;;5066837;28;20169;-70
2022/02/20 11:36:53;;;;;;;38.77;7.20;;;;;;;;;;5069053;28;20197;-70
2022/02/20 11:39:18;;;;;;;39.07;9.70;;;;;;;;;;5062525;28;20215;-69
2022/02/20 11:42:02;;;;;;;36.63;6.53;;;;;;;;;;5062300;28;20204;-70
2022/02/20 11:44:28;;;;;;;33.97;7.07;;;;;;;;;;5064147;28;20230;-69
2022/02/20 11:46:53;;;;;;;37.10;8.07;;;;;;;;;;5064760;28;20204;-69
2022/02/20 11:49:26;;;;;;;37.17;8.73;;;;;;;;;;5060088;28;20226;-69
2022/02/20 11:51:59;;;;;;;33.23;6.70;;;;;;;;;;5066166;28;20215;-69
2022/02/20 11:54:24;;;;;;;40.37;9.67;;;;;;;;;;5049488;28;20276;-69
2022/02/20 11:57:08;;;;;;;37.43;8.67;;;;;;;;;;5068678;28;20280;-69
2022/02/20 11:59:33;;;;;;;36.00;7.57;;;;;;;;;;5070187;28;20180;-70
2022/02/20 12:02:14;;;;;;;36.43;8.27;;;;;;;;;;5069426;28;20181;-69
2022/02/20 12:05:06;;;;;;;45.40;7.13;;;;;;;;;;5063151;28;20181;-69
2022/02/20 12:07:35;;;;;;;41.80;7.83;;;;;;;;;;5051676;28;20220;-69
2022/02/20 12:10:24;;;;;;;40.90;8.67;;;;;;;;;;5068583;28;20165;-70
2022/02/20 12:12:53;;;;;;;35.83;7.97;;;;;;;;;;5058963;28;20749;-69
2022/02/20 12:15:24;;;;;;;34.90;7.67;;;;;;;;;;5062089;28;20780;-70
2022/02/20 12:18:02;;;;;;;35.17;9.43;;;;;;;;;;5064545;28;20215;-69
2022/02/20 12:20:49;;;;;;;30.30;7.40;;;;;;;;;;5065344;28;20226;-69
2022/02/20 12:23:26;;;;;;;31.97;7.03;;;;;;;;;;5061367;28;20606;-69
2022/02/20 12:25:52;;;;;;;32.27;6.67;;;;;;;;;;5060323;28;20173;-70
2022/02/20 12:28:37;;;;;;;30.17;6.87;;;;;;;;;;5063240;28;21012;-69
2022/02/20 12:31:08;;;;;;;34.67;7.33;;;;;;;;;;5064665;28;20209;-71
2022/02/20 12:33:35;;;;;;;33.80;8.53;;;;;;;;;;5063642;28;20184;-71
2022/02/20 12:36:00;;;;;;;27.63;5.53;;;;;;;;;;5061022;28;20179;-71
2022/02/20 12:38:25;;;;;;;30.83;6.77;;;;;;;;;;5065555;28;20193;-70
2022/02/20 12:40:52;;;;;;;29.33;6.83;;;;;;;;;;5050555;28;20177;-71
2022/02/20 12:43:17;;;;;;;27.13;6.33;;;;;;;;;;5068799;28;20307;-71
2022/02/20 12:45:44;;;;;;;28.83;7.93;;;;;;;;;;5066503;28;20268;-68
2022/02/20 12:48:10;;;;;;;31.80;7.30;;;;;;;;;;5067728;28;20196;-71
2022/02/20 12:50:37;;;;;;;22.93;6.83;;;;;;;;;;5073562;28;20251;-71
2022/02/20 12:53:03;;;;;;;36.57;6.47;;;;;;;;;;5072098;28;20266;-69
2022/02/20 12:55:28;;;;;;;28.90;6.63;;;;;;;;;;5071856;28;20753;-69
2022/02/20 12:57:58;;;;;;;31.77;7.60;;;;;;;;;;5071765;28;20303;-69
2022/02/20 13:00:25;;;;;;;24.63;5.80;;;;;;;;;;5067694;28;20726;-70
2022/02/20 13:02:58;;;;;;;21.00;5.73;;;;;;;;;;5071213;28;20177;-70
2022/02/20 13:05:34;;;;;;;30.83;6.20;;;;;;;;;;5067986;28;20374;-69
2022/02/20 13:08:00;;;;;;;19.50;5.20;;;;;;;;;;5076222;28;20231;-70
2022/02/20 13:10:33;;;;;;;26.60;5.80;;;;;;;;;;5072669;28;20200;-71
2022/02/20 13:13:01;;;;;;;19.83;5.13;;;;;;;;;;5068072;28;20186;-69
2022/02/20 13:15:26;;;;;;;26.03;5.10;;;;;;;;;;5070399;28;20284;-71
2022/02/20 13:18:10;;;;;;;27.40;6.13;;;;;;;;;;5065363;28;20279;-70
2022/02/20 13:20:43;;;;;;;22.63;5.07;;;;;;;;;;5054041;28;20188;-71
2022/02/20 13:23:21;;;;;;;18.73;4.83;;;;;;;;;;5067126;28;20253;-70
2022/02/20 13:25:47;;;;;;;24.00;5.93;;;;;;;;;;5071493;28;20177;-70
2022/02/20 13:28:16;;;;;;;22.60;5.23;;;;;;;;;;5072306;28;20227;-69
2022/02/20 13:30:42;;;;;;;20.23;6.37;;;;;;;;;;5072047;28;20201;-70
2022/02/20 13:33:13;;;;;;;24.17;7.50;;;;;;;;;;5070877;28;20187;-70
2022/02/20 13:35:39;;;;;;;21.10;4.90;;;;;;;;;;5054460;28;20177;-70
2022/02/20 13:38:06;;;;;;;25.33;5.50;;;;;;;;;;5066805;28;20289;-71
2022/02/20 13:40:39;;;;;;;29.93;5.60;;;;;;;;;;5070226;28;20216;-70
2022/02/20 13:43:08;;;;;;;26.93;5.20;;;;;;;;;;5071618;28;20555;-71
2022/02/20 13:45:34;;;;;;;27.87;6.10;;;;;;;;;;5071921;28;20666;-70
2022/02/20 13:48:00;;;;;;;25.87;6.50;;;;;;;;;;5071421;28;20192;-71
2022/02/20 13:50:25;;;;;;;19.40;4.93;;;;;;;;;;5062524;28;20179;-71
2022/02/20 13:52:51;;;;;;;20.57;4.83;;;;;;;;;;5058734;28;20863;-71
2022/02/20 13:55:25;;;;;;;19.83;5.27;;;;;;;;;;5059996;28;20185;-71
2022/02/20 13:57:51;;;;;;;24.47;6.27;;;;;;;;;;5064480;28;20188;-71
2022/02/20 14:00:17;;;;;;;21.70;6.00;;;;;;;;;;5055678;28;20185;-71
2022/02/20 14:02:43;;;;;;;18.30;5.13;;;;;;;;;;5065622;28;20247;-70
2022/02/20 14:05:16;;;;;;;18.53;5.53;;;;;;;;;;5067649;28;20216;-70
2022/02/20 14:07:42;;;;;;;23.07;5.37;;;;;;;;;;5048118;28;20225;-70
2022/02/20 14:10:09;;;;;;;22.27;5.43;;;;;;;;;;5058602;28;20193;-72
2022/02/20 14:12:40;;;;;;;33.53;6.57;;;;;;;;;;5047026;28;20216;-70
2022/02/20 14:15:13;;;;;;;23.07;6.30;;;;;;;;;;5068771;28;20177;-71
2022/02/20 14:17:57;;;;;;;27.87;5.90;;;;;;;;;;5066577;28;20630;-71
2022/02/20 14:20:30;;;;;;;24.00;6.20;;;;;;;;;;5065099;28;20184;-72
2022/02/20 14:22:56;;;;;;;29.27;6.23;;;;;;;;;;5070489;28;20259;-72
2022/02/20 14:25:23;;;;;;;35.13;8.53;;;;;;;;;;5065709;28;20185;-70
2022/02/20 14:27:55;;;;;;;25.73;7.57;;;;;;;;;;5077661;22;20237;-68
2022/02/20 14:30:33;;;;;;;27.33;5.90;;;;;;;;;;5067331;28;20181;-70